Time;durP1;ratioP1;P1;durP2;ratioP2;P2;SDS_P1;SDS_P2;PMS_P1;PMS_P2;Temp;Humidity;BMP_temperature;BMP_pressure;BME280_temperature;BME280_humidity;BME280_pressure;Samples;Min_cycle;Max_cycle;Signal;HPM_P1;HPM_P2
2023/03/19 00:02:05;;;;;;;94.65;55.80;;;154.50;2252.80;;;;;;4989669;28;20191;-62
2023/03/19 00:04:31;;;;;;;84.82;49.65;;;154.50;2252.80;;;;;;4991064;28;20137;-65
2023/03/19 00:06:57;;;;;;;52.80;30.88;;;154.50;2252.80;;;;;;4991863;28;20096;-63
2023/03/19 00:09:23;;;;;;;41.10;27.63;;;154.50;2227.20;;;;;;4973501;28;20492;-62
2023/03/19 00:11:48;;;;;;;71.45;43.28;;;154.50;2227.20;;;;;;4991665;28;20077;-64
2023/03/19 00:14:16;;;;;;;70.68;41.70;;;154.50;2252.80;;;;;;4990945;28;20077;-62
2023/03/19 00:16:42;;;;;;;94.57;52.28;;;154.50;2252.80;;;;;;4991218;28;20034;-61
2023/03/19 00:19:08;;;;;;;45.97;27.92;;;154.50;2252.80;;;;;;4991139;28;20022;-63
2023/03/19 00:21:34;;;;;;;122.65;62.95;;;154.50;2252.80;;;;;;4991532;28;20026;-64
2023/03/19 00:24:01;;;;;;;70.95;41.10;;;154.30;2252.80;;;;;;4990891;28;20117;-64
2023/03/19 00:26:33;;;;;;;71.65;41.28;;;154.30;2252.80;;;;;;4991341;28;20026;-65
2023/03/19 00:29:00;;;;;;;177.57;88.55;;;154.40;2252.80;;;;;;4972555;28;20361;-63
2023/03/19 00:31:27;;;;;;;186.63;101.45;;;154.20;2252.80;;;;;;4990851;28;20489;-62
2023/03/19 00:33:56;;;;;;;52.10;33.05;;;154.00;2252.80;;;;;;4990878;28;20029;-64
2023/03/19 00:36:22;;;;;;;41.28;25.55;;;128.90;2252.80;;;;;;4991429;28;20056;-66
2023/03/19 00:38:48;;;;;;;94.70;49.17;;;128.60;2252.80;;;;;;4973078;28;20473;-63
2023/03/19 00:41:14;;;;;;;51.00;29.98;;;128.30;2252.80;;;;;;4991167;28;20121;-62
2023/03/19 00:43:40;;;;;;;155.40;72.72;;;128.50;2252.80;;;;;;4990370;28;20826;-65
2023/03/19 00:46:05;;;;;;;73.70;36.35;;;128.60;2252.80;;;;;;4990880;28;20030;-60
2023/03/19 00:48:31;;;;;;;209.75;93.10;;;128.70;2252.80;;;;;;4989991;28;20054;-66
2023/03/19 00:51:05;;;;;;;42.10;24.27;;;128.80;2252.80;;;;;;4990655;28;20585;-66
2023/03/19 00:53:32;;;;;;;77.40;44.00;;;128.80;2252.80;;;;;;4990618;28;20030;-65
2023/03/19 00:55:58;;;;;;;42.70;27.17;;;128.90;2252.80;;;;;;4990748;28;20054;-63
2023/03/19 00:58:24;;;;;;;40.47;26.83;;;128.90;2252.80;;;;;;4990595;28;20058;-67
2023/03/19 01:00:53;;;;;;;35.38;22.52;;;153.60;2252.80;;;;;;4990479;28;20026;-64
2023/03/19 01:03:20;;;;;;;29.75;17.45;;;153.60;2252.80;;;;;;4977627;28;20035;-66
2023/03/19 01:05:49;;;;;;;62.55;38.17;;;153.60;2252.80;;;;;;4990675;28;20026;-65
2023/03/19 01:08:17;;;;;;;35.88;22.48;;;128.80;2252.80;;;;;;4990434;28;20037;-63
2023/03/19 01:10:43;;;;;;;31.90;19.75;;;128.80;2252.80;;;;;;4990215;28;20504;-67
2023/03/19 01:13:09;;;;;;;33.55;21.88;;;128.60;2252.80;;;;;;4989621;28;20073;-67
2023/03/19 01:15:37;;;;;;;35.13;21.27;;;128.40;2252.80;;;;;;4988839;28;20073;-64
2023/03/19 01:18:03;;;;;;;25.90;16.67;;;128.30;2252.80;;;;;;4979319;28;20052;-67
2023/03/19 01:20:28;;;;;;;25.05;15.57;;;128.30;2252.80;;;;;;4989944;28;20101;-65
2023/03/19 01:22:54;;;;;;;26.58;14.30;;;128.40;2252.80;;;;;;4990438;28;20056;-66
2023/03/19 01:25:21;;;;;;;23.13;14.43;;;128.40;2252.80;;;;;;4990361;28;20085;-65
2023/03/19 01:27:46;;;;;;;16.38;12.63;;;128.30;2252.80;;;;;;4990638;28;20026;-65
2023/03/19 01:30:13;;;;;;;21.42;12.55;;;128.20;2252.80;;;;;;4989918;28;20042;-66
2023/03/19 01:32:38;;;;;;;23.17;14.10;;;128.10;2252.80;;;;;;4989874;28;20029;-65
2023/03/19 01:35:05;;;;;;;29.05;18.20;;;128.10;2252.80;;;;;;4989875;28;20034;-66
2023/03/19 01:37:31;;;;;;;17.30;11.63;;;128.10;2252.80;;;;;;4989959;28;20473;-65
2023/03/19 01:39:57;;;;;;;19.23;12.38;;;128.10;2252.80;;;;;;4989774;28;20892;-64
2023/03/19 01:42:23;;;;;;;26.75;17.55;;;128.10;2252.80;;;;;;4989924;28;20027;-66
2023/03/19 01:44:49;;;;;;;22.52;14.93;;;128.10;2252.80;;;;;;4989997;28;20027;-62
2023/03/19 01:47:19;;;;;;;23.45;14.88;;;128.20;2252.80;;;;;;4990161;28;20057;-66
2023/03/19 01:49:51;;;;;;;69.30;40.10;;;128.10;2252.80;;;;;;4989527;28;20428;-66
2023/03/19 01:52:18;;;;;;;54.95;33.33;;;128.10;2252.80;;;;;;4989965;28;20448;-66
2023/03/19 01:54:44;;;;;;;93.28;48.80;;;128.00;2252.80;;;;;;4989643;28;20106;-65
2023/03/19 01:57:13;;;;;;;81.18;41.35;;;128.10;2252.80;;;;;;4989110;28;20019;-64
2023/03/19 01:59:44;;;;;;;96.32;46.97;;;128.10;2252.80;;;;;;4989835;28;20035;-63
2023/03/19 02:02:31;;;;;;;112.50;53.85;;;128.20;2252.80;;;;;;4989775;28;20097;-65
2023/03/19 02:05:01;;;;;;;147.77;70.30;;;128.20;2252.80;;;;;;4977423;28;20589;-66
2023/03/19 02:07:32;;;;;;;79.97;41.97;;;128.20;2252.80;;;;;;4989464;28;20550;-65
2023/03/19 02:10:00;;;;;;;22.48;14.70;;;128.20;2252.80;;;;;;4989411;28;20069;-64
2023/03/19 02:12:26;;;;;;;19.80;13.25;;;103.30;2227.20;;;;;;4989461;28;20491;-64
2023/03/19 02:14:52;;;;;;;21.52;14.05;;;102.80;2227.20;;;;;;4989270;28;20065;-66
2023/03/19 02:17:20;;;;;;;18.92;12.57;;;102.50;2227.20;;;;;;4989391;28;20026;-62
2023/03/19 02:20:05;;;;;;;38.13;20.65;;;102.40;2227.20;;;;;;4989652;28;20034;-64
2023/03/19 02:22:31;;;;;;;17.08;11.00;;;77.70;2227.20;;;;;;4989304;28;20018;-65
2023/03/19 02:25:13;;;;;;;178.70;79.15;;;102.40;2227.20;;;;;;4989845;28;20492;-66
2023/03/19 02:27:39;;;;;;;522.38;257.65;;;102.60;2227.20;;;;;;4977051;28;20027;-66
2023/03/19 02:30:27;;;;;;;231.43;100.50;;;102.80;2227.20;;;;;;4989317;28;20034;-67
2023/03/19 02:32:53;;;;;;;61.38;27.30;;;102.90;2227.20;;;;;;4989505;28;20038;-68
2023/03/19 02:35:18;;;;;;;65.90;30.63;;;103.10;2227.20;;;;;;4989248;28;20052;-61
2023/03/19 02:37:44;;;;;;;197.18;93.53;;;103.20;2227.20;;;;;;4989568;28;20030;-67
2023/03/19 02:40:21;;;;;;;65.35;30.63;;;103.10;2227.20;;;;;;4989536;28;20018;-66
2023/03/19 02:42:47;;;;;;;194.70;96.47;;;103.00;2227.20;;;;;;4989543;28;20034;-65
2023/03/19 02:45:14;;;;;;;189.23;89.30;;;103.00;2227.20;;;;;;4989401;28;20038;-65
2023/03/19 02:47:40;;;;;;;147.40;72.53;;;103.10;2227.20;;;;;;4989494;28;20721;-67
2023/03/19 02:50:06;;;;;;;98.57;54.25;;;103.00;2227.20;;;;;;4989379;28;20031;-67
2023/03/19 02:52:33;;;;;;;25.55;14.65;;;103.10;2227.20;;;;;;4989040;28;20369;-63
2023/03/19 02:54:58;;;;;;;33.42;21.23;;;103.00;2227.20;;;;;;4988314;28;20491;-66
2023/03/19 02:57:24;;;;;;;27.58;17.65;;;103.10;2227.20;;;;;;4989399;28;20030;-67
2023/03/19 02:59:50;;;;;;;23.17;15.07;;;103.20;2227.20;;;;;;4989286;28;20042;-64
2023/03/19 03:02:16;;;;;;;73.97;40.03;;;103.10;2227.20;;;;;;4989249;28;20085;-66
2023/03/19 03:04:42;;;;;;;91.85;54.67;;;103.20;2227.20;;;;;;4989079;28;20050;-68
2023/03/19 03:07:07;;;;;;;60.22;35.83;;;103.20;2227.20;;;;;;4989209;28;20023;-63
2023/03/19 03:09:34;;;;;;;22.38;12.60;;;103.20;2227.20;;;;;;4991567;28;20049;-66
2023/03/19 03:12:00;;;;;;;67.43;37.47;;;103.10;2227.20;;;;;;4992831;28;20358;-66
2023/03/19 03:14:25;;;;;;;47.28;24.35;;;103.10;2227.20;;;;;;4992598;28;20053;-68
2023/03/19 03:16:52;;;;;;;34.63;20.90;;;103.10;2227.20;;;;;;4992666;28;20035;-67
2023/03/19 03:19:18;;;;;;;58.38;28.80;;;103.10;2227.20;;;;;;4993423;28;20570;-66
2023/03/19 03:21:44;;;;;;;25.80;14.40;;;103.00;2227.20;;;;;;4993490;28;20026;-65
2023/03/19 03:24:09;;;;;;;29.67;17.80;;;103.00;2227.20;;;;;;4992704;28;20026;-63
2023/03/19 03:26:37;;;;;;;43.25;23.55;;;102.70;2227.20;;;;;;4992466;28;20034;-62
2023/03/19 03:29:05;;;;;;;65.88;38.47;;;102.70;2227.20;;;;;;4992221;28;20023;-61
2023/03/19 03:31:31;;;;;;;16.77;11.00;;;102.80;2227.20;;;;;;4992008;28;20030;-64
2023/03/19 03:33:56;;;;;;;39.17;23.88;;;102.90;2227.20;;;;;;4992172;28;20535;-64
2023/03/19 03:36:23;;;;;;;24.92;14.18;;;102.90;2227.20;;;;;;4991933;28;20069;-64
2023/03/19 03:38:49;;;;;;;20.67;11.98;;;102.80;2227.20;;;;;;4992011;28;20437;-61
2023/03/19 03:41:14;;;;;;;17.38;11.60;;;77.70;2227.20;;;;;;4992162;28;20062;-61
2023/03/19 03:43:40;;;;;;;19.20;12.40;;;77.40;2227.20;;;;;;4991602;28;20030;-61
2023/03/19 03:46:07;;;;;;;18.95;11.98;;;77.30;2227.20;;;;;;4992036;28;20066;-61
2023/03/19 03:48:34;;;;;;;18.17;12.57;;;77.20;2227.20;;;;;;4992040;28;20042;-61
2023/03/19 03:51:00;;;;;;;58.78;32.00;;;77.10;2227.20;;;;;;4991211;28;20046;-62
2023/03/19 03:53:26;;;;;;;134.50;69.60;;;77.30;2227.20;;;;;;4991886;28;20113;-63
2023/03/19 03:55:51;;;;;;;109.95;53.85;;;77.60;2227.20;;;;;;4992049;28;20575;-65
2023/03/19 03:58:17;;;;;;;199.07;85.05;;;102.40;2227.20;;;;;;4992065;28;20518;-63
2023/03/19 04:00:43;;;;;;;77.95;34.10;;;102.60;2227.20;;;;;;4992178;28;20031;-63
2023/03/19 04:03:09;;;;;;;21.67;10.23;;;102.70;2227.20;;;;;;4990796;28;20077;-63
2023/03/19 04:05:36;;;;;;;13.80;7.88;;;102.70;2227.20;;;;;;4991921;28;20031;-65
2023/03/19 04:08:03;;;;;;;110.07;54.03;;;102.70;2227.20;;;;;;4991401;28;20054;-63
2023/03/19 04:10:30;;;;;;;24.77;14.27;;;102.50;2227.20;;;;;;4974131;28;20034;-63
2023/03/19 04:12:56;;;;;;;31.63;18.85;;;102.50;2227.20;;;;;;4991241;28;20022;-64
2023/03/19 04:15:22;;;;;;;15.82;10.27;;;102.60;2227.20;;;;;;4991390;28;20046;-63
2023/03/19 04:17:47;;;;;;;12.07;7.97;;;102.60;2227.20;;;;;;4990846;28;20019;-64
2023/03/19 04:20:17;;;;;;;14.20;8.82;;;102.70;2227.20;;;;;;4990737;28;20076;-63
2023/03/19 04:22:43;;;;;;;17.20;12.75;;;102.70;2227.20;;;;;;4978905;28;20029;-63
2023/03/19 04:25:09;;;;;;;17.77;11.70;;;102.40;2227.20;;;;;;4991117;28;20084;-65
2023/03/19 04:27:35;;;;;;;12.85;8.93;;;102.40;2227.20;;;;;;4991555;28;20033;-64
2023/03/19 04:30:02;;;;;;;15.27;9.45;;;77.50;2227.20;;;;;;4990836;28;20035;-65
2023/03/19 04:32:28;;;;;;;14.30;8.80;;;77.30;2227.20;;;;;;4990662;28;20469;-64
2023/03/19 04:34:53;;;;;;;17.83;10.13;;;77.30;2227.20;;;;;;4990937;28;20033;-66
2023/03/19 04:37:19;;;;;;;11.13;7.80;;;77.50;2227.20;;;;;;4990883;28;20027;-65
2023/03/19 04:39:46;;;;;;;21.13;12.30;;;77.40;2227.20;;;;;;4991223;28;20030;-65
2023/03/19 04:42:12;;;;;;;21.33;11.77;;;77.50;2227.20;;;;;;4990930;28;20037;-67
2023/03/19 04:44:37;;;;;;;15.70;9.30;;;77.50;2227.20;;;;;;4990288;28;20035;-64
2023/03/19 04:47:03;;;;;;;18.30;12.38;;;77.40;2227.20;;;;;;4990717;28;20034;-67
2023/03/19 04:49:32;;;;;;;22.02;13.88;;;77.50;2227.20;;;;;;4990541;28;20041;-65
2023/03/19 04:51:58;;;;;;;14.77;9.68;;;77.60;2227.20;;;;;;4990435;28;20022;-64
2023/03/19 04:54:24;;;;;;;14.63;9.85;;;77.70;2227.20;;;;;;4990594;28;20028;-66
2023/03/19 04:56:51;;;;;;;14.93;8.48;;;77.70;2227.20;;;;;;4990209;28;20093;-66
2023/03/19 04:59:17;;;;;;;14.52;8.63;;;102.50;2227.20;;;;;;4990679;28;20026;-65
2023/03/19 05:01:43;;;;;;;15.20;9.88;;;102.50;2227.20;;;;;;4990109;28;20527;-65
2023/03/19 05:04:09;;;;;;;16.27;9.82;;;102.60;2227.20;;;;;;4990179;28;20109;-65
2023/03/19 05:06:36;;;;;;;16.35;8.75;;;102.70;2227.20;;;;;;4990716;28;20030;-65
2023/03/19 05:09:03;;;;;;;18.38;11.52;;;102.80;2227.20;;;;;;4990109;28;20362;-66
2023/03/19 05:11:29;;;;;;;16.98;11.23;;;102.90;2227.20;;;;;;4990353;28;20042;-64
2023/03/19 05:13:55;;;;;;;17.73;9.50;;;102.90;2227.20;;;;;;4989990;28;20054;-66
2023/03/19 05:16:20;;;;;;;11.43;8.05;;;103.00;2227.20;;;;;;4989760;28;20034;-62
2023/03/19 05:18:46;;;;;;;18.40;10.95;;;103.00;2227.20;;;;;;4989804;28;20034;-66
2023/03/19 05:21:13;;;;;;;15.77;10.00;;;102.90;2227.20;;;;;;4990058;28;20030;-66
2023/03/19 05:23:39;;;;;;;14.55;9.60;;;102.70;2227.20;;;;;;4989865;28;20109;-65
2023/03/19 05:26:05;;;;;;;59.75;34.67;;;102.60;2227.20;;;;;;4990435;28;20166;-67
2023/03/19 05:28:32;;;;;;;30.73;21.25;;;102.80;2227.20;;;;;;4989554;28;20097;-65
2023/03/19 05:30:57;;;;;;;20.83;10.05;;;102.90;2227.20;;;;;;4990035;28;20200;-65
2023/03/19 05:33:24;;;;;;;23.85;15.15;;;103.00;2227.20;;;;;;4988681;28;20038;-65
2023/03/19 05:35:50;;;;;;;117.43;69.90;;;103.10;2227.20;;;;;;4972269;28;20035;-65
2023/03/19 05:38:16;;;;;;;43.45;27.20;;;103.10;2227.20;;;;;;4989859;28;20053;-66
2023/03/19 05:40:41;;;;;;;23.13;13.70;;;103.30;2227.20;;;;;;4989877;28;20057;-65
2023/03/19 05:43:09;;;;;;;18.80;12.52;;;128.00;2252.80;;;;;;4989906;28;20567;-64
2023/03/19 05:45:35;;;;;;;19.33;13.52;;;128.10;2252.80;;;;;;4990012;28;20035;-66
2023/03/19 05:48:02;;;;;;;23.00;14.05;;;128.20;2252.80;;;;;;4989069;28;20465;-62
2023/03/19 05:50:28;;;;;;;17.05;11.93;;;128.30;2252.80;;;;;;4989948;28;20058;-63
2023/03/19 05:52:53;;;;;;;13.20;9.40;;;128.40;2252.80;;;;;;4989528;28;20023;-67
2023/03/19 05:55:19;;;;;;;14.90;9.40;;;128.50;2252.80;;;;;;4990044;28;20033;-61
2023/03/19 05:57:45;;;;;;;15.50;9.20;;;128.30;2252.80;;;;;;4989459;28;20535;-62
2023/03/19 06:00:12;;;;;;;11.82;8.63;;;128.00;2252.80;;;;;;4990017;28;20098;-63
2023/03/19 06:02:38;;;;;;;12.98;7.18;;;103.30;2227.20;;;;;;4989385;28;20029;-62
2023/03/19 06:05:05;;;;;;;11.90;7.40;;;103.20;2227.20;;;;;;4989823;28;20022;-62
2023/03/19 06:07:31;;;;;;;10.18;7.32;;;103.30;2227.20;;;;;;4989754;28;20030;-62
2023/03/19 06:09:57;;;;;;;14.85;8.63;;;128.10;2252.80;;;;;;4989345;28;20057;-62
2023/03/19 06:12:23;;;;;;;22.90;16.02;;;128.80;2252.80;;;;;;4989336;28;20389;-62
2023/03/19 06:14:49;;;;;;;445.13;288.50;;;205.20;2252.80;;;;;;4989505;28;20496;-63
2023/03/19 06:17:15;;;;;;;29.15;19.65;;;256.80;2124.80;;;;;;4989242;28;20030;-61
2023/03/19 06:19:41;;;;;;;15.18;10.27;;;308.00;1945.60;;;;;;4989439;28;20037;-62
2023/03/19 06:22:07;;;;;;;17.88;13.35;;;358.60;1792.00;;;;;;4989404;28;20030;-63
2023/03/19 06:24:32;;;;;;;13.48;9.00;;;359.00;1740.80;;;;;;4989364;28;20373;-62
2023/03/19 06:26:58;;;;;;;63.25;51.13;;;359.10;1689.60;;;;;;4989106;28;20034;-62
2023/03/19 06:29:25;;;;;;;15.00;12.68;;;384.70;1638.40;;;;;;4989623;28;20022;-59
2023/03/19 06:31:51;;;;;;;13.55;10.82;;;409.90;1612.80;;;;;;4988804;28;20050;-60
2023/03/19 06:34:17;;;;;;;18.23;15.10;;;410.30;1587.20;;;;;;4989127;28;20104;-60
2023/03/19 06:36:43;;;;;;;15.43;10.85;;;410.40;1561.60;;;;;;4988935;28;20027;-60
2023/03/19 06:39:09;;;;;;;17.92;16.00;;;435.70;1510.40;;;;;;4988988;28;20023;-61
2023/03/19 06:41:36;;;;;;;52.67;47.03;;;461.10;1510.40;;;;;;4989135;28;20500;-60
2023/03/19 06:44:02;;;;;;;19.13;15.98;;;486.80;1408.00;;;;;;4990432;28;20022;-61
2023/03/19 06:46:28;;;;;;;15.05;12.05;;;512.50;1356.80;;;;;;4992551;28;20034;-61
2023/03/19 06:48:54;;;;;;;12.38;10.40;;;537.60;1356.80;;;;;;4993120;28;20366;-61
2023/03/19 06:51:20;;;;;;;17.60;14.93;;;538.20;1280.00;;;;;;4992604;28;20504;-62
2023/03/19 06:53:46;;;;;;;31.58;26.23;;;563.70;1280.00;;;;;;4992990;28;20483;-63
2023/03/19 06:56:11;;;;;;;37.30;26.67;;;589.40;1228.80;;;;;;4992516;28;20034;-63
2023/03/19 06:58:37;;;;;;;35.08;31.33;;;589.60;1203.20;;;;;;4992832;28;20023;-62
2023/03/19 07:01:03;;;;;;;35.35;30.98;;;614.70;1177.60;;;;;;4992494;28;20563;-60
2023/03/19 07:03:29;;;;;;;27.58;24.80;;;615.30;1152.00;;;;;;4992407;28;20073;-59
2023/03/19 07:05:55;;;;;;;36.33;32.50;;;615.10;1152.00;;;;;;4992452;28;20034;-60
2023/03/19 07:08:21;;;;;;;44.78;39.83;;;589.00;1228.80;;;;;;4992278;28;20114;-60
2023/03/19 07:10:47;;;;;;;61.10;52.38;;;614.60;1177.60;;;;;;4992601;28;20061;-60
2023/03/19 07:13:12;;;;;;;62.45;52.90;;;640.00;1152.00;;;;;;4992112;28;20046;-61
2023/03/19 07:15:38;;;;;;;59.25;51.72;;;640.90;1126.40;;;;;;4992178;28;20034;-61
2023/03/19 07:18:04;;;;;;;53.20;47.28;;;615.00;1177.60;;;;;;4992125;28;20022;-63
2023/03/19 07:20:30;;;;;;;45.85;41.08;;;615.30;1152.00;;;;;;4992028;28;20415;-61
2023/03/19 07:22:55;;;;;;;49.28;43.67;;;615.10;1152.00;;;;;;4992417;28;20034;-60
2023/03/19 07:25:21;;;;;;;50.75;45.35;;;640.00;1152.00;;;;;;4991902;28;20026;-60
2023/03/19 07:27:47;;;;;;;52.88;47.00;;;665.60;1126.40;;;;;;4992585;28;20027;-62
2023/03/19 07:30:14;;;;;;;46.70;40.70;;;665.60;1100.80;;;;;;4991407;28;20125;-63
2023/03/19 07:32:40;;;;;;;41.38;37.08;;;640.90;1100.80;;;;;;4991716;28;20026;-60
2023/03/19 07:35:07;;;;;;;48.65;43.42;;;665.80;1100.80;;;;;;4991348;28;20030;-62
2023/03/19 07:37:33;;;;;;;48.80;41.70;;;666.20;1075.20;;;;;;4985143;28;20019;-61
2023/03/19 07:39:58;;;;;;;50.72;45.17;;;666.20;1075.20;;;;;;4985588;28;20030;-60
2023/03/19 07:42:24;;;;;;;51.58;45.95;;;692.10;1024.00;;;;;;4992077;28;20050;-60
2023/03/19 07:44:50;;;;;;;41.97;37.60;;;742.50;1024.00;;;;;;4991554;28;20468;-60
2023/03/19 07:47:16;;;;;;;40.33;36.00;;;717.50;998.40;;;;;;4991587;28;20038;-61
2023/03/19 07:49:41;;;;;;;31.95;28.60;;;742.50;1024.00;;;;;;4991158;28;20030;-61
2023/03/19 07:52:07;;;;;;;30.75;27.35;;;692.00;998.40;;;;;;4992073;28;20061;-60
2023/03/19 07:54:33;;;;;;;24.15;21.58;;;666.20;1049.60;;;;;;4991071;28;20022;-60
2023/03/19 07:56:59;;;;;;;23.65;21.00;;;691.70;1024.00;;;;;;4990559;28;20389;-60
2023/03/19 07:59:25;;;;;;;44.10;35.45;;;742.60;998.40;;;;;;4990958;28;20019;-60
2023/03/19 08:01:50;;;;;;;48.78;37.88;;;717.50;998.40;;;;;;4990432;28;20039;-59
2023/03/19 08:04:16;;;;;;;26.10;22.23;;;716.90;998.40;;;;;;4991112;28;20022;-61
2023/03/19 08:06:42;;;;;;;16.05;14.23;;;742.40;998.40;;;;;;4990605;28;20094;-62
2023/03/19 08:09:08;;;;;;;15.40;13.73;;;717.40;972.80;;;;;;4985541;28;20106;-67
2023/03/19 08:11:35;;;;;;;21.02;18.92;;;717.10;972.80;;;;;;4983840;28;20030;-66
2023/03/19 08:14:01;;;;;;;29.95;26.75;;;717.20;998.40;;;;;;4990855;28;20049;-60
2023/03/19 08:16:27;;;;;;;31.38;26.38;;;717.60;972.80;;;;;;4991424;28;20058;-61
2023/03/19 08:18:53;;;;;;;25.58;22.65;;;742.60;998.40;;;;;;4990910;28;20104;-61
2023/03/19 08:21:18;;;;;;;28.65;24.33;;;691.50;1024.00;;;;;;4991345;28;20062;-61
2023/03/19 08:23:44;;;;;;;37.67;33.75;;;692.10;998.40;;;;;;4982761;28;20469;-59
2023/03/19 08:26:10;;;;;;;31.45;28.15;;;717.60;998.40;;;;;;4980495;28;20480;-60
2023/03/19 08:28:37;;;;;;;36.53;32.78;;;742.70;998.40;;;;;;4988350;28;20031;-61
2023/03/19 08:31:10;;;;;;;30.73;27.40;;;768.60;947.20;;;;;;4989727;28;20118;-61
2023/03/19 08:33:36;;;;;;;30.05;26.90;;;742.80;998.40;;;;;;4990798;28;20113;-61
2023/03/19 08:36:07;;;;;;;30.38;27.33;;;743.30;998.40;;;;;;4990763;28;20035;-70
2023/03/19 08:38:33;;;;;;;36.83;32.25;;;768.60;947.20;;;;;;4990028;28;20031;-70
2023/03/19 08:41:01;;;;;;;39.90;33.58;;;768.50;947.20;;;;;;4989847;28;20070;-69
2023/03/19 08:43:27;;;;;;;36.53;32.88;;;819.20;921.60;;;;;;4990488;28;20036;-68
2023/03/19 08:45:53;;;;;;;29.20;26.33;;;819.70;896.00;;;;;;4990609;28;20534;-67
2023/03/19 08:48:19;;;;;;;28.70;25.70;;;819.60;921.60;;;;;;4990213;28;20026;-68
2023/03/19 08:50:45;;;;;;;25.60;23.17;;;819.70;896.00;;;;;;4990355;28;20041;-69
2023/03/19 08:53:10;;;;;;;26.90;24.23;;;793.70;947.20;;;;;;4990900;28;20026;-68
2023/03/19 08:55:36;;;;;;;28.00;25.25;;;794.30;921.60;;;;;;4990190;28;20026;-68
2023/03/19 08:58:02;;;;;;;26.60;23.70;;;768.90;921.60;;;;;;4990141;28;20037;-67
2023/03/19 09:00:27;;;;;;;19.45;17.58;;;768.70;921.60;;;;;;4990329;28;20022;-67
2023/03/19 09:02:53;;;;;;;20.33;18.23;;;793.80;921.60;;;;;;4990162;28;20023;-67
2023/03/19 09:05:22;;;;;;;17.02;15.23;;;794.50;870.40;;;;;;4990480;28;20026;-67
2023/03/19 09:07:49;;;;;;;19.67;17.73;;;742.80;921.60;;;;;;4990189;28;20022;-63
2023/03/19 09:10:15;;;;;;;20.83;18.63;;;717.40;947.20;;;;;;4990208;28;20540;-67
2023/03/19 09:12:41;;;;;;;18.83;16.98;;;717.00;972.80;;;;;;4990056;28;20079;-65
2023/03/19 09:15:07;;;;;;;18.20;12.98;;;691.40;972.80;;;;;;4989901;28;20165;-65
2023/03/19 09:17:32;;;;;;;15.40;13.35;;;614.80;1049.60;;;;;;4972666;28;20026;-63
2023/03/19 09:19:58;;;;;;;14.55;13.05;;;589.30;1100.80;;;;;;4989978;28;20368;-65
2023/03/19 09:22:24;;;;;;;17.08;12.77;;;589.10;1126.40;;;;;;4989765;28;20069;-65
2023/03/19 09:24:50;;;;;;;21.35;17.55;;;538.30;1152.00;;;;;;4990022;28;20507;-64
2023/03/19 09:27:15;;;;;;;52.80;40.50;;;538.10;1177.60;;;;;;4990054;28;20352;-63
2023/03/19 09:29:41;;;;;;;19.05;15.48;;;538.10;1177.60;;;;;;4989653;28;20050;-65
2023/03/19 09:32:07;;;;;;;16.90;13.75;;;512.90;1203.20;;;;;;4985873;28;20026;-64
2023/03/19 09:34:33;;;;;;;22.50;16.80;;;512.50;1254.40;;;;;;4987603;28;20030;-61
2023/03/19 09:36:58;;;;;;;22.45;17.20;;;512.40;1280.00;;;;;;4987798;28;20030;-62
2023/03/19 09:39:24;;;;;;;16.90;14.27;;;512.70;1254.40;;;;;;4987819;28;20589;-65
2023/03/19 09:41:49;;;;;;;29.80;22.08;;;512.20;1280.00;;;;;;4987733;28;20027;-61
2023/03/19 09:44:25;;;;;;;56.40;37.45;;;512.50;1280.00;;;;;;4987176;28;20031;-64
2023/03/19 09:47:12;;;;;;;37.40;27.25;;;512.30;1280.00;;;;;;4987274;28;20034;-62
2023/03/19 09:49:43;;;;;;;21.80;14.60;;;512.40;1280.00;;;;;;4981285;28;20027;-61
2023/03/19 09:52:29;;;;;;;47.38;30.80;;;487.30;1254.40;;;;;;4987714;28;20381;-64
2023/03/19 09:54:59;;;;;;;28.13;19.20;;;487.10;1280.00;;;;;;4979754;28;20023;-61
2023/03/19 09:57:28;;;;;;;48.15;31.55;;;487.10;1254.40;;;;;;4985904;28;20030;-61
2023/03/19 09:59:55;;;;;;;58.83;42.55;;;512.00;1254.40;;;;;;4984888;28;20038;-63
2023/03/19 10:02:43;;;;;;;13.27;10.70;;;512.00;1254.40;;;;;;4987058;28;20088;-61
2023/03/19 10:05:09;;;;;;;17.60;14.02;;;486.60;1254.40;;;;;;4986258;28;20089;-64
2023/03/19 10:07:56;;;;;;;44.85;32.05;;;486.70;1254.40;;;;;;4986908;28;20373;-67
2023/03/19 10:10:42;;;;;;;19.50;14.73;;;487.00;1280.00;;;;;;4985566;28;20108;-65
2023/03/19 10:13:17;;;;;;;11.88;10.05;;;486.60;1254.40;;;;;;4986743;28;20030;-65
2023/03/19 10:15:44;;;;;;;17.02;12.68;;;486.70;1254.40;;;;;;4986267;28;20033;-62
2023/03/19 10:18:17;;;;;;;19.65;13.98;;;461.70;1280.00;;;;;;4986434;28;20065;-63
2023/03/19 10:21:01;;;;;;;36.05;25.80;;;486.70;1280.00;;;;;;4989193;28;20487;-65
2023/03/19 10:23:53;;;;;;;33.38;28.30;;;486.50;1305.60;;;;;;4985739;28;20035;-63
2023/03/19 10:26:22;;;;;;;15.35;11.73;;;486.70;1254.40;;;;;;4985980;28;20448;-69
2023/03/19 10:29:21;;;;;;;11.52;10.23;;;486.80;1254.40;;;;;;4990237;28;20034;-63
2023/03/19 10:32:27;;;;;;;15.32;12.43;;;486.50;1254.40;;;;;;4991315;28;20040;-65
2023/03/19 10:34:53;;;;;;;13.27;11.13;;;486.80;1254.40;;;;;;4991904;28;20019;-69
2023/03/19 10:37:27;;;;;;;35.92;27.13;;;487.10;1203.20;;;;;;4990554;28;20026;-65
2023/03/19 10:39:58;;;;;;;16.38;10.55;;;486.60;1203.20;;;;;;4990854;28;20745;-58
2023/03/19 10:42:46;;;;;;;9.55;7.40;;;487.00;1203.20;;;;;;4990873;28;20038;-61
2023/03/19 10:45:30;;;;;;;16.05;11.68;;;486.90;1177.60;;;;;;4989513;28;20031;-57
2023/03/19 10:47:57;;;;;;;14.05;9.90;;;487.10;1228.80;;;;;;4990796;28;20069;-59
2023/03/19 10:50:53;;;;;;;13.63;12.02;;;486.80;1228.80;;;;;;4990284;28;20385;-63
2023/03/19 10:53:35;;;;;;;10.80;7.60;;;486.90;1228.80;;;;;;4986942;28;20066;-60
2023/03/19 10:56:06;;;;;;;11.43;7.63;;;486.90;1228.80;;;;;;4989685;28;20022;-62
2023/03/19 10:58:35;;;;;;;13.02;9.07;;;486.80;1228.80;;;;;;4979211;28;20134;-60
2023/03/19 11:01:05;;;;;;;13.50;10.15;;;487.20;1228.80;;;;;;4991072;28;20061;-58
2023/03/19 11:03:48;;;;;;;12.50;9.75;;;487.30;1228.80;;;;;;4992046;28;20030;-58
2023/03/19 11:06:36;;;;;;;13.07;10.60;;;487.20;1228.80;;;;;;4992699;28;20018;-59
2023/03/19 11:09:07;;;;;;;14.02;9.93;;;512.00;1228.80;;;;;;4991758;28;20031;-60
2023/03/19 11:11:36;;;;;;;13.52;11.18;;;487.10;1203.20;;;;;;4992255;28;20109;-63
2023/03/19 11:14:18;;;;;;;8.75;7.35;;;487.20;1203.20;;;;;;4991216;28;20046;-69
2023/03/19 11:17:16;;;;;;;10.05;8.40;;;487.30;1203.20;;;;;;4992364;28;20030;-58
2023/03/19 11:20:11;;;;;;;14.77;12.68;;;487.10;1203.20;;;;;;4992246;28;20715;-58
2023/03/19 11:22:39;;;;;;;12.07;9.55;;;487.30;1254.40;;;;;;4913305;29;20043;-58
2023/03/19 11:25:25;;;;;;;15.95;12.52;;;487.30;1228.80;;;;;;4913076;29;20072;-70
2023/03/19 11:28:02;;;;;;;17.67;11.30;;;512.10;1305.60;;;;;;4912919;29;20047;-60
2023/03/19 11:30:39;;;;;;;15.45;9.85;;;487.30;1254.40;;;;;;4911230;29;20051;-60
2023/03/19 11:33:16;;;;;;;30.65;21.35;;;512.00;1254.40;;;;;;4911478;29;20028;-65
2023/03/19 11:36:14;;;;;;;13.90;11.02;;;512.30;1305.60;;;;;;4912203;29;20448;-57
2023/03/19 11:39:08;;;;;;;12.20;9.32;;;512.40;1254.40;;;;;;4911621;29;20083;-58
2023/03/19 11:42:05;;;;;;;11.90;9.68;;;512.50;1254.40;;;;;;4913002;29;20087;-58
2023/03/19 11:44:54;;;;;;;11.20;9.93;;;512.50;1254.40;;;;;;4911228;29;20044;-57
2023/03/19 11:47:42;;;;;;;14.30;10.13;;;512.20;1280.00;;;;;;4911731;29;20032;-56
2023/03/19 11:50:29;;;;;;;13.23;9.25;;;512.40;1254.40;;;;;;4911401;29;20606;-57
2023/03/19 11:53:09;;;;;;;15.88;9.13;;;512.60;1280.00;;;;;;4912611;29;20039;-58
2023/03/19 11:55:38;;;;;;;12.35;9.82;;;512.30;1280.00;;;;;;4912623;29;20101;-63
2023/03/19 11:58:12;;;;;;;17.45;11.52;;;512.40;1254.40;;;;;;4912725;29;20083;-61
2023/03/19 12:00:52;;;;;;;18.33;11.25;;;512.30;1280.00;;;;;;4978542;28;20038;-58
2023/03/19 12:03:24;;;;;;;14.23;10.45;;;512.40;1280.00;;;;;;4979167;28;20143;-67
2023/03/19 12:06:01;;;;;;;17.83;12.27;;;512.60;1331.20;;;;;;4990938;28;20042;-58
2023/03/19 12:08:55;;;;;;;17.63;10.65;;;512.50;1305.60;;;;;;4988459;28;20503;-60
2023/03/19 12:11:42;;;;;;;14.90;9.27;;;487.30;1305.60;;;;;;4984147;28;20045;-71